createdAt,value
2018-03-27T00:01:42.634Z,30.57
2018-03-27T00:04:10.862Z,30.67
2018-03-27T00:06:39.137Z,34.23
2018-03-27T00:09:08.283Z,36.03
2018-03-27T00:11:36.566Z,57.47
2018-03-27T00:14:04.889Z,48.73
2018-03-27T00:16:33.243Z,43.93
2018-03-27T00:19:01.509Z,73.43
2018-03-27T00:21:29.840Z,37.03
2018-03-27T00:23:58.173Z,32.87
2018-03-27T00:26:27.371Z,28.87
2018-03-27T00:29:07.575Z,28.65
2018-03-27T00:31:53.707Z,24.67
2018-03-27T00:34:39.803Z,23.40
2018-03-27T00:37:27.117Z,26.80
2018-03-27T00:40:13.999Z,27.37
2018-03-27T00:42:55.525Z,26.17
2018-03-27T00:45:23.580Z,28.90
2018-03-27T00:47:51.644Z,30.30
2018-03-27T00:50:20.393Z,34.17
2018-03-27T00:52:48.664Z,41.97
2018-03-27T00:55:16.924Z,37.43
2018-03-27T00:57:45.962Z,35.70
2018-03-27T01:00:15.370Z,40.37
2018-03-27T01:02:43.618Z,59.57
2018-03-27T01:05:11.871Z,44.70
2018-03-27T01:07:40.902Z,38.63
2018-03-27T01:10:09.173Z,35.53
2018-03-27T01:12:37.462Z,34.10
2018-03-27T01:15:05.733Z,35.53
2018-03-27T01:17:35.181Z,37.83
2018-03-27T01:20:03.459Z,34.50
2018-03-27T01:22:31.823Z,33.27
2018-03-27T01:25:00.082Z,36.53
2018-03-27T01:27:28.356Z,33.70
2018-03-27T01:29:56.623Z,32.23
2018-03-27T01:32:24.894Z,34.87
2018-03-27T01:34:54.603Z,35.90
2018-03-27T01:37:24.067Z,43.97
2018-03-27T01:39:52.365Z,34.60
2018-03-27T01:42:20.646Z,41.23
2018-03-27T01:44:49.016Z,32.80
2018-03-27T01:47:17.331Z,35.03
2018-03-27T01:49:45.675Z,38.60
2018-03-27T01:52:13.942Z,37.07
2018-03-27T01:54:43.018Z,42.17
2018-03-27T01:57:11.291Z,33.67
2018-03-27T01:59:39.590Z,35.63
2018-03-27T02:02:07.893Z,39.77
2018-03-27T02:04:37.000Z,35.07
2018-03-27T02:07:05.354Z,34.30
2018-03-27T02:09:33.658Z,32.73
2018-03-27T02:12:07.656Z,31.37
2018-03-27T02:14:41.538Z,35.00
2018-03-27T02:17:15.509Z,39.37
2018-03-27T02:19:49.604Z,37.07
2018-03-27T02:22:17.904Z,35.17
2018-03-27T02:24:47.389Z,39.43
2018-03-27T02:27:16.470Z,31.97
2018-03-27T02:29:44.738Z,41.60
2018-03-27T02:32:12.986Z,36.03
2018-03-27T02:34:41.244Z,44.40
2018-03-27T02:37:11.559Z,35.30
2018-03-27T02:39:42.697Z,38.13
2018-03-27T02:42:10.966Z,40.33
2018-03-27T02:44:39.214Z,39.57
2018-03-27T02:47:07.532Z,40.75
2018-03-27T02:49:35.822Z,47.23
2018-03-27T02:52:04.866Z,42.03
2018-03-27T02:54:34.128Z,43.83
2018-03-27T02:57:02.293Z,46.80
2018-03-27T02:59:30.614Z,54.30
2018-03-27T03:01:58.975Z,44.23
2018-03-27T03:04:27.230Z,42.40
2018-03-27T03:06:55.521Z,36.17
2018-03-27T03:09:23.880Z,43.00
2018-03-27T03:11:52.147Z,42.47
2018-03-27T03:14:21.142Z,42.30
2018-03-27T03:16:51.320Z,41.97
2018-03-27T03:19:19.596Z,40.33
2018-03-27T03:21:47.856Z,37.50
2018-03-27T03:24:16.133Z,40.43
2018-03-27T03:26:45.273Z,44.00
2018-03-27T03:29:13.517Z,34.97
2018-03-27T03:31:41.796Z,44.77
2018-03-27T03:34:10.090Z,37.77
2018-03-27T03:36:38.478Z,37.07
2018-03-27T03:39:08.377Z,37.35
2018-03-27T03:41:36.698Z,41.83
2018-03-27T03:44:04.995Z,36.77
2018-03-27T03:46:33.332Z,45.50
2018-03-27T03:49:03.191Z,39.47
2018-03-27T03:51:31.467Z,44.47
2018-03-27T03:53:59.755Z,44.53
2018-03-27T03:56:28.031Z,39.87
2018-03-27T03:58:56.320Z,43.30
2018-03-27T04:01:25.702Z,42.53
2018-03-27T04:03:53.994Z,47.43
2018-03-27T04:06:22.266Z,55.47
2018-03-27T04:08:50.607Z,47.33
2018-03-27T04:11:18.903Z,53.70
2018-03-27T04:13:47.172Z,48.63
2018-03-27T04:16:15.503Z,43.87
2018-03-27T04:18:44.840Z,51.00
2018-03-27T04:21:13.967Z,47.43
2018-03-27T04:23:43.162Z,44.03
2018-03-27T04:26:11.437Z,42.63
2018-03-27T04:28:39.747Z,48.63
2018-03-27T04:31:08.784Z,44.53
2018-03-27T04:33:37.118Z,44.57
2018-03-27T04:36:05.393Z,46.87
2018-03-27T04:38:33.632Z,52.20
2018-03-27T04:41:01.964Z,46.50
2018-03-27T04:43:31.062Z,40.57
2018-03-27T04:45:59.486Z,46.70
2018-03-27T04:48:27.728Z,44.53
2018-03-27T04:50:56.266Z,43.83
2018-03-27T04:53:24.506Z,41.07
2018-03-27T04:55:52.772Z,43.93
2018-03-27T04:58:21.050Z,57.27
2018-03-27T05:00:49.296Z,53.83
2018-03-27T05:03:18.395Z,60.93
2018-03-27T05:05:51.274Z,65.20
2018-03-27T05:08:21.570Z,65.90
2018-03-27T05:10:49.836Z,60.90
2018-03-27T05:13:18.162Z,71.67
2018-03-27T05:15:47.201Z,62.87
2018-03-27T05:18:15.461Z,71.57
2018-03-27T05:20:43.700Z,83.97
2018-03-27T05:23:11.972Z,79.80
2018-03-27T05:25:40.225Z,74.80
2018-03-27T05:28:08.478Z,78.30
2018-03-27T05:30:40.401Z,73.40
2018-03-27T05:33:08.691Z,74.87
2018-03-27T05:35:36.968Z,65.70
2018-03-27T05:38:05.272Z,58.43
2018-03-27T05:40:33.533Z,68.70
2018-03-27T05:43:01.839Z,63.90
2018-03-27T05:45:30.087Z,59.93
2018-03-27T05:47:58.420Z,51.10
2018-03-27T05:50:28.602Z,56.60
2018-03-27T05:52:56.888Z,53.50
2018-03-27T05:55:25.153Z,50.43
2018-03-27T05:57:53.497Z,51.77
2018-03-27T06:00:21.746Z,57.77
2018-03-27T06:02:50.049Z,62.23
2018-03-27T06:05:19.320Z,57.20
2018-03-27T06:07:47.703Z,50.20
2018-03-27T06:10:17.918Z,51.53
2018-03-27T06:12:46.944Z,50.17
2018-03-27T06:15:16.031Z,50.10
2018-03-27T06:17:45.474Z,49.00
2018-03-27T06:20:13.776Z,55.77
2018-03-27T06:22:42.907Z,51.73
2018-03-27T06:25:11.255Z,49.30
2018-03-27T06:27:40.361Z,56.67
2018-03-27T06:30:08.676Z,51.10
2018-03-27T06:32:36.986Z,54.20
2018-03-27T06:35:05.257Z,47.13
2018-03-27T06:37:34.270Z,46.67
2018-03-27T06:40:03.334Z,45.17
2018-03-27T06:42:31.990Z,48.37
2018-03-27T06:45:01.287Z,47.47
2018-03-27T06:47:29.556Z,42.70
2018-03-27T06:49:57.949Z,43.17
2018-03-27T06:52:26.216Z,45.20
2018-03-27T06:54:54.455Z,40.60
2018-03-27T06:57:24.645Z,41.47
2018-03-27T06:59:56.612Z,39.30
2018-03-27T07:02:26.500Z,37.70
2018-03-27T07:04:54.771Z,36.00
2018-03-27T07:07:23.171Z,35.47
2018-03-27T07:09:51.438Z,39.30
2018-03-27T07:12:19.713Z,37.87
2018-03-27T07:14:47.991Z,37.63
2018-03-27T07:17:16.256Z,39.07
2018-03-27T07:19:44.539Z,40.50
2018-03-27T07:22:13.972Z,40.83
2018-03-27T07:24:42.229Z,39.25
2018-03-27T07:27:10.511Z,43.23
2018-03-27T07:29:38.825Z,40.07
2018-03-27T07:32:07.855Z,43.30
2018-03-27T07:34:36.956Z,40.30
2018-03-27T07:37:05.222Z,39.77
2018-03-27T07:39:33.511Z,41.87
2018-03-27T07:42:01.818Z,43.30
2018-03-27T07:44:31.019Z,42.23
2018-03-27T07:47:00.087Z,40.77
2018-03-27T07:49:28.355Z,37.57
2018-03-27T07:51:56.739Z,41.50
2018-03-27T07:54:25.902Z,36.90
2018-03-27T07:56:54.244Z,38.38
2018-03-27T07:59:22.515Z,39.40
2018-03-27T08:01:50.878Z,36.00
2018-03-27T08:04:19.203Z,37.67
2018-03-27T08:06:48.309Z,38.97
2018-03-27T08:09:16.923Z,32.57
2018-03-27T08:11:45.940Z,31.80
2018-03-27T08:14:14.225Z,29.73
2018-03-27T08:16:43.310Z,29.40
2018-03-27T08:19:11.587Z,31.03
2018-03-27T08:21:39.912Z,30.13
2018-03-27T08:24:08.249Z,33.78
2018-03-27T08:26:37.653Z,35.30
2018-03-27T08:29:05.945Z,33.47
2018-03-27T08:31:37.786Z,30.87
2018-03-27T08:34:06.044Z,32.13
2018-03-27T08:36:35.370Z,32.73
2018-03-27T08:39:03.646Z,29.67
2018-03-27T08:41:32.663Z,30.57
2018-03-27T08:44:01.753Z,29.67
2018-03-27T08:46:30.054Z,26.30
2018-03-27T08:48:58.358Z,25.70
2018-03-27T08:51:26.755Z,26.67
2018-03-27T08:53:55.042Z,25.90
2018-03-27T08:56:23.321Z,24.37
2018-03-27T08:58:51.593Z,24.83
2018-03-27T09:01:19.818Z,24.43
2018-03-27T09:03:48.192Z,24.93
2018-03-27T09:06:17.224Z,23.03
2018-03-27T09:08:47.040Z,24.17
2018-03-27T09:11:15.365Z,24.23
2018-03-27T09:13:43.774Z,24.67
2018-03-27T09:16:12.100Z,23.03
2018-03-27T09:18:44.961Z,25.90
2018-03-27T09:21:13.248Z,25.30
2018-03-27T09:23:43.106Z,23.33
2018-03-27T09:26:11.434Z,20.33
2018-03-27T09:28:39.748Z,22.67
2018-03-27T09:31:08.843Z,22.65
2018-03-27T09:33:39.195Z,20.60
2018-03-27T09:36:07.421Z,20.73
2018-03-27T09:38:37.732Z,20.07
2018-03-27T09:41:06.104Z,22.77
2018-03-27T09:43:34.489Z,54.70
2018-03-27T09:46:03.920Z,20.60
2018-03-27T09:48:32.252Z,23.50
2018-03-27T09:51:01.283Z,17.10
2018-03-27T09:53:29.621Z,19.60
2018-03-27T09:55:57.998Z,16.43
2018-03-27T09:58:26.272Z,18.97
2018-03-27T10:00:54.543Z,16.17
2018-03-27T10:03:22.810Z,16.63
2018-03-27T10:05:56.038Z,15.77
2018-03-27T10:08:25.827Z,16.07
2018-03-27T10:10:54.130Z,14.77
2018-03-27T10:13:23.203Z,18.10
2018-03-27T10:15:51.519Z,15.87
2018-03-27T10:18:21.001Z,14.97
2018-03-27T10:20:49.259Z,13.60
2018-03-27T10:23:17.582Z,14.23
2018-03-27T10:25:46.609Z,15.37
2018-03-27T10:28:14.879Z,14.60
2018-03-27T10:30:43.154Z,12.87
2018-03-27T10:33:11.425Z,12.10
2018-03-27T10:35:39.703Z,12.27
2018-03-27T10:38:07.998Z,13.80
2018-03-27T10:40:36.293Z,14.83
2018-03-27T10:43:04.584Z,17.87
2018-03-27T10:45:32.856Z,13.23
2018-03-27T10:48:01.177Z,12.23
2018-03-27T10:50:29.516Z,11.10
2018-03-27T10:52:57.778Z,13.70
2018-03-27T10:55:26.042Z,25.33
2018-03-27T10:57:54.364Z,11.48
2018-03-27T11:00:22.634Z,11.83
2018-03-27T11:02:51.720Z,15.23
2018-03-27T11:05:21.949Z,12.40
2018-03-27T11:07:50.990Z,12.33
2018-03-27T11:10:22.092Z,9.33
2018-03-27T11:12:50.426Z,11.53
2018-03-27T11:15:18.668Z,15.07
2018-03-27T11:17:50.678Z,37.50
2018-03-27T11:20:19.109Z,23.70
2018-03-27T11:22:47.456Z,12.57
2018-03-27T11:25:16.494Z,12.23
2018-03-27T11:27:45.894Z,12.50
2018-03-27T11:30:14.162Z,11.13
2018-03-27T11:32:42.469Z,11.90
2018-03-27T11:35:14.448Z,12.67
2018-03-27T11:37:43.641Z,13.13
2018-03-27T11:40:11.904Z,24.33
2018-03-27T11:42:40.292Z,15.37
2018-03-27T11:45:08.591Z,14.40
2018-03-27T11:47:37.699Z,13.70
2018-03-27T11:50:06.051Z,14.77
2018-03-27T11:52:35.218Z,14.67
2018-03-27T11:55:03.516Z,13.80
2018-03-27T11:57:31.807Z,11.90
2018-03-27T12:00:00.967Z,9.90
2018-03-27T12:02:29.249Z,11.40
2018-03-27T12:04:57.499Z,11.23
2018-03-27T12:07:25.830Z,12.30
2018-03-27T12:09:54.860Z,11.83
2018-03-27T12:12:23.164Z,14.77
2018-03-27T12:14:52.388Z,11.33
2018-03-27T12:17:20.696Z,9.45
2018-03-27T12:19:52.810Z,9.07
2018-03-27T12:22:21.844Z,9.53
2018-03-27T12:24:50.154Z,9.13
2018-03-27T12:27:19.158Z,9.30
2018-03-27T12:29:47.399Z,9.37
2018-03-27T12:32:16.479Z,7.30
2018-03-27T12:34:45.606Z,8.30
2018-03-27T12:37:13.847Z,7.80
2018-03-27T12:39:42.881Z,7.90
2018-03-27T12:42:11.207Z,7.60
2018-03-27T12:44:39.453Z,7.73
2018-03-27T12:47:07.734Z,6.80
2018-03-27T12:49:36.021Z,6.00
2018-03-27T12:52:05.492Z,6.20
2018-03-27T12:54:33.862Z,5.97
2018-03-27T12:57:02.805Z,6.00
2018-03-27T12:59:31.105Z,7.00
2018-03-27T13:01:59.430Z,8.03
2018-03-27T13:04:27.701Z,7.37
2018-03-27T13:06:56.141Z,5.97
2018-03-27T13:09:25.166Z,5.77
2018-03-27T13:11:53.430Z,5.10
2018-03-27T13:14:21.771Z,5.97
2018-03-27T13:16:50.178Z,5.50
2018-03-27T13:19:19.202Z,5.67
2018-03-27T13:21:48.804Z,5.10
2018-03-27T13:24:17.838Z,5.63
2018-03-27T13:26:46.104Z,8.83
2018-03-27T13:29:14.346Z,5.30
2018-03-27T13:31:42.618Z,5.50
2018-03-27T13:34:10.884Z,5.50
2018-03-27T13:36:39.919Z,5.97
2018-03-27T13:39:08.206Z,6.00
2018-03-27T13:41:36.486Z,4.97
2018-03-27T13:44:04.765Z,5.03
2018-03-27T13:46:34.577Z,4.43
2018-03-27T13:49:02.904Z,4.57
2018-03-27T13:51:31.347Z,4.40
2018-03-27T13:53:59.629Z,5.43
2018-03-27T13:56:28.637Z,5.03
2018-03-27T13:58:58.126Z,7.87
2018-03-27T14:01:27.208Z,5.47
2018-03-27T14:03:55.594Z,4.70
2018-03-27T14:06:24.978Z,6.03
2018-03-27T14:08:53.222Z,5.20
2018-03-27T14:11:21.527Z,5.07
2018-03-27T14:13:49.783Z,5.53
2018-03-27T14:16:19.422Z,5.57
2018-03-27T14:18:47.677Z,4.17
2018-03-27T14:21:16.578Z,4.40
2018-03-27T14:23:44.917Z,4.60
2018-03-27T14:26:13.261Z,3.07
2018-03-27T14:28:45.148Z,4.93
2018-03-27T14:31:14.199Z,4.10
2018-03-27T14:33:42.468Z,8.57
2018-03-27T14:36:10.829Z,5.07
2018-03-27T14:38:39.204Z,4.60
2018-03-27T14:41:07.539Z,5.03
2018-03-27T14:43:37.485Z,5.30
2018-03-27T14:46:05.750Z,5.53
2018-03-27T14:48:34.065Z,4.03
2018-03-27T14:51:03.627Z,5.62
2018-03-27T14:53:33.590Z,5.17
2018-03-27T14:56:01.982Z,7.20
2018-03-27T14:58:30.300Z,5.10
2018-03-27T15:00:58.540Z,4.83
2018-03-27T15:03:26.904Z,5.90
2018-03-27T15:05:55.177Z,7.63
2018-03-27T15:08:23.411Z,6.07
2018-03-27T15:10:51.718Z,5.73
2018-03-27T15:13:20.007Z,7.53
2018-03-27T15:15:48.310Z,5.80
2018-03-27T15:18:17.342Z,4.30
2018-03-27T15:20:45.639Z,6.13
2018-03-27T15:23:14.015Z,6.70
2018-03-27T15:25:42.368Z,5.43
2018-03-27T15:28:11.852Z,6.73
2018-03-27T15:30:41.040Z,5.57
2018-03-27T15:33:09.282Z,5.33
2018-03-27T15:35:39.531Z,5.37
2018-03-27T15:38:07.869Z,7.20
2018-03-27T15:40:36.138Z,7.53
2018-03-27T15:43:04.444Z,5.90
2018-03-27T15:45:32.742Z,6.07
2018-03-27T15:48:02.773Z,5.37
2018-03-27T15:50:31.847Z,5.87
2018-03-27T15:53:00.932Z,6.03
2018-03-27T15:55:30.393Z,7.30
2018-03-27T15:57:58.626Z,5.83
2018-03-27T16:00:27.676Z,7.33
2018-03-27T16:02:56.121Z,7.17
2018-03-27T16:05:25.142Z,6.17
2018-03-27T16:07:53.429Z,5.57
2018-03-27T16:10:21.693Z,6.13
2018-03-27T16:12:49.963Z,5.00
2018-03-27T16:15:18.286Z,6.30
2018-03-27T16:17:47.338Z,5.63
2018-03-27T16:20:15.653Z,5.40
2018-03-27T16:22:43.905Z,7.23
2018-03-27T16:25:12.210Z,6.20
2018-03-27T16:27:40.522Z,6.68
2018-03-27T16:30:08.820Z,5.37
2018-03-27T16:32:37.151Z,6.90
2018-03-27T16:35:05.407Z,7.17
2018-03-27T16:37:33.774Z,7.07
2018-03-27T16:40:02.045Z,6.07
2018-03-27T16:42:30.357Z,7.30
2018-03-27T16:44:58.711Z,7.73
2018-03-27T16:47:26.997Z,5.77
2018-03-27T16:49:55.378Z,6.00
2018-03-27T16:52:23.640Z,6.33
2018-03-27T16:54:51.903Z,5.93
2018-03-27T16:57:20.186Z,6.17
2018-03-27T16:59:48.514Z,6.70
2018-03-27T17:02:16.826Z,5.90
2018-03-27T17:04:45.083Z,5.80
2018-03-27T17:07:13.385Z,7.60
2018-03-27T17:09:41.716Z,5.78
2018-03-27T17:12:10.751Z,5.57
2018-03-27T17:14:39.015Z,6.73
2018-03-27T17:17:07.296Z,8.15
2018-03-27T17:19:36.107Z,9.35
2018-03-27T17:22:05.274Z,6.27
2018-03-27T17:24:33.530Z,7.37
2018-03-27T17:27:01.851Z,6.23
2018-03-27T17:29:30.097Z,5.00
2018-03-27T17:31:58.343Z,5.37
2018-03-27T17:34:27.426Z,5.83
2018-03-27T17:36:55.708Z,6.83
2018-03-27T17:39:23.967Z,8.27
2018-03-27T17:41:52.248Z,6.32
2018-03-27T17:44:21.286Z,6.53
2018-03-27T17:46:49.587Z,6.30
2018-03-27T17:49:17.919Z,5.67
2018-03-27T17:51:47.057Z,6.63
2018-03-27T17:54:15.456Z,6.13
2018-03-27T17:56:43.718Z,4.77
2018-03-27T17:59:11.981Z,5.85
2018-03-27T18:01:40.282Z,5.93
2018-03-27T18:04:08.630Z,6.63
2018-03-27T18:06:37.008Z,6.47
2018-03-27T18:09:05.746Z,6.83
2018-03-27T18:11:34.009Z,5.87
2018-03-27T18:14:02.413Z,6.03
2018-03-27T18:16:31.491Z,6.43
2018-03-27T18:18:59.745Z,5.82
2018-03-27T18:21:28.111Z,6.10
2018-03-27T18:23:58.199Z,6.10
2018-03-27T18:26:26.496Z,5.80
2018-03-27T18:28:54.878Z,5.90
2018-03-27T18:31:23.152Z,5.77
2018-03-27T18:33:51.437Z,5.57
2018-03-27T18:36:19.756Z,5.73
2018-03-27T18:38:48.172Z,5.53
2018-03-27T18:41:16.440Z,7.03
2018-03-27T18:43:45.537Z,7.05
2018-03-27T18:46:13.920Z,6.50
2018-03-27T18:48:42.248Z,5.55
2018-03-27T18:51:10.745Z,7.30
2018-03-27T18:53:39.063Z,7.70
2018-03-27T18:56:08.828Z,6.80
2018-03-27T18:58:37.112Z,7.77
2018-03-27T19:01:07.104Z,7.35
2018-03-27T19:03:35.382Z,7.27
2018-03-27T19:06:03.631Z,8.63
2018-03-27T19:08:31.947Z,8.93
2018-03-27T19:11:00.204Z,7.23
2018-03-27T19:13:28.493Z,7.67
2018-03-27T19:15:56.756Z,7.60
2018-03-27T19:18:25.093Z,7.00
2018-03-27T19:20:53.373Z,7.83
2018-03-27T19:23:21.701Z,8.73
2018-03-27T19:25:49.997Z,8.47
2018-03-27T19:28:19.079Z,7.90
2018-03-27T19:30:48.138Z,8.03
2018-03-27T19:33:16.400Z,8.87
2018-03-27T19:35:44.704Z,8.23
2018-03-27T19:38:13.868Z,8.47
2018-03-27T19:40:43.021Z,8.73
2018-03-27T19:43:11.335Z,8.38
2018-03-27T19:45:39.638Z,10.20
2018-03-27T19:48:07.913Z,8.20
2018-03-27T19:50:36.681Z,8.83
2018-03-27T19:53:05.012Z,10.20
2018-03-27T19:55:33.293Z,8.57
2018-03-27T19:58:01.731Z,8.80
2018-03-27T20:00:30.128Z,8.40
2018-03-27T20:02:58.457Z,9.40
2018-03-27T20:05:26.719Z,10.10
2018-03-27T20:07:55.762Z,8.43
2018-03-27T20:10:24.099Z,8.00
2018-03-27T20:12:53.281Z,8.13
2018-03-27T20:15:22.425Z,9.67
2018-03-27T20:17:50.683Z,8.97
2018-03-27T20:20:18.953Z,9.73
2018-03-27T20:22:47.238Z,8.63
2018-03-27T20:25:15.513Z,9.33
2018-03-27T20:27:43.799Z,9.63
2018-03-27T20:30:13.257Z,9.87
2018-03-27T20:32:42.317Z,10.63
2018-03-27T20:35:10.621Z,9.47
2018-03-27T20:37:38.924Z,10.53
2018-03-27T20:40:07.954Z,9.67
2018-03-27T20:42:36.230Z,9.47
2018-03-27T20:45:04.523Z,9.80
2018-03-27T20:47:33.729Z,10.23
2018-03-27T20:50:02.050Z,10.80
2018-03-27T20:52:30.342Z,10.85
2018-03-27T20:54:58.597Z,11.77
2018-03-27T20:57:26.886Z,11.43
2018-03-27T20:59:55.171Z,11.10
2018-03-27T21:02:23.481Z,12.00
2018-03-27T21:04:52.659Z,10.70
2018-03-27T21:07:21.094Z,10.37
2018-03-27T21:09:50.125Z,10.45
2018-03-27T21:12:18.536Z,12.90
2018-03-27T21:14:46.852Z,11.73
2018-03-27T21:17:15.211Z,10.67
2018-03-27T21:19:43.485Z,12.32
2018-03-27T21:22:13.459Z,10.43
2018-03-27T21:24:41.762Z,11.80
2018-03-27T21:27:10.131Z,12.30
2018-03-27T21:29:38.439Z,10.63
2018-03-27T21:32:07.572Z,10.37
2018-03-27T21:34:35.915Z,10.00
2018-03-27T21:37:04.991Z,11.70
2018-03-27T21:39:34.450Z,10.53
2018-03-27T21:42:02.697Z,10.17
2018-03-27T21:44:31.787Z,12.30
2018-03-27T21:47:00.034Z,9.97
2018-03-27T21:49:28.320Z,10.73
2018-03-27T21:51:57.333Z,10.17
2018-03-27T21:54:25.622Z,11.93
2018-03-27T21:56:53.942Z,10.10
2018-03-27T21:59:22.247Z,10.90
2018-03-27T22:01:51.339Z,10.83
2018-03-27T22:04:19.585Z,11.30
2018-03-27T22:06:48.673Z,11.13
2018-03-27T22:09:16.933Z,10.07
2018-03-27T22:11:45.240Z,10.83
2018-03-27T22:14:13.539Z,11.10
2018-03-27T22:16:43.768Z,10.30
2018-03-27T22:19:12.038Z,10.63
2018-03-27T22:21:44.786Z,11.83
2018-03-27T22:24:13.826Z,11.07
2018-03-27T22:26:43.640Z,13.00
2018-03-27T22:29:12.665Z,11.93
2018-03-27T22:31:41.758Z,10.27
2018-03-27T22:34:10.061Z,11.40
2018-03-27T22:36:38.399Z,10.57
2018-03-27T22:39:07.609Z,12.27
2018-03-27T22:41:35.990Z,12.13
2018-03-27T22:44:05.193Z,11.90
2018-03-27T22:46:33.549Z,12.23
2018-03-27T22:49:01.931Z,12.00
2018-03-27T22:51:30.305Z,12.17
2018-03-27T22:53:58.667Z,12.33
2018-03-27T22:56:26.965Z,12.20
2018-03-27T22:58:55.319Z,12.23
2018-03-27T23:01:23.668Z,13.33
2018-03-27T23:03:52.157Z,12.80
2018-03-27T23:06:21.304Z,13.17
2018-03-27T23:08:49.662Z,11.87
2018-03-27T23:11:17.986Z,12.40
2018-03-27T23:13:46.268Z,13.33
2018-03-27T23:16:14.582Z,12.53
2018-03-27T23:18:43.687Z,13.03
2018-03-27T23:21:12.877Z,12.07
2018-03-27T23:23:42.000Z,13.23
2018-03-27T23:26:11.169Z,12.43
2018-03-27T23:28:40.238Z,12.10
2018-03-27T23:31:09.278Z,12.57
2018-03-27T23:33:38.414Z,12.43
2018-03-27T23:36:07.587Z,12.20
2018-03-27T23:38:35.865Z,13.00
2018-03-27T23:41:04.207Z,12.40
2018-03-27T23:43:32.537Z,14.67
2018-03-27T23:46:00.937Z,11.60
2018-03-27T23:48:30.145Z,14.17
2018-03-27T23:50:59.189Z,11.93
2018-03-27T23:53:27.431Z,13.17
2018-03-27T23:55:55.744Z,13.03
2018-03-27T23:58:23.979Z,13.83
